sensor_id;sensor_type;location;lat;lon;timestamp;P1;durP1;ratioP1;P2;durP2;ratioP2
30384;SDS011;17181;51.002;4.096;2022-11-20T00:00:52;24.57;;;12.40;;
30384;SDS011;17181;51.002;4.096;2022-11-20T00:03:18;28.57;;;11.33;;
30384;SDS011;17181;51.002;4.096;2022-11-20T00:05:44;19.57;;;10.40;;
30384;SDS011;17181;51.002;4.096;2022-11-20T00:08:10;21.57;;;10.70;;
30384;SDS011;17181;51.002;4.096;2022-11-20T00:10:37;26.60;;;10.47;;
30384;SDS011;17181;51.002;4.096;2022-11-20T00:13:03;27.40;;;11.87;;
30384;SDS011;17181;51.002;4.096;2022-11-20T00:15:30;21.47;;;11.30;;
30384;SDS011;17181;51.002;4.096;2022-11-20T00:17:55;25.60;;;12.07;;
30384;SDS011;17181;51.002;4.096;2022-11-20T00:20:21;26.03;;;11.87;;
30384;SDS011;17181;51.002;4.096;2022-11-20T00:22:47;22.73;;;10.53;;
30384;SDS011;17181;51.002;4.096;2022-11-20T00:25:13;24.53;;;12.10;;
30384;SDS011;17181;51.002;4.096;2022-11-20T00:27:39;28.30;;;11.47;;
30384;SDS011;17181;51.002;4.096;2022-11-20T00:30:05;28.57;;;12.23;;
30384;SDS011;17181;51.002;4.096;2022-11-20T00:32:31;22.63;;;10.93;;
30384;SDS011;17181;51.002;4.096;2022-11-20T00:34:57;18.60;;;9.80;;
30384;SDS011;17181;51.002;4.096;2022-11-20T00:37:23;22.80;;;11.57;;
30384;SDS011;17181;51.002;4.096;2022-11-20T00:39:49;20.37;;;10.27;;
30384;SDS011;17181;51.002;4.096;2022-11-20T00:42:14;21.70;;;11.10;;
30384;SDS011;17181;51.002;4.096;2022-11-20T00:44:40;25.67;;;11.07;;
30384;SDS011;17181;51.002;4.096;2022-11-20T00:47:06;19.10;;;9.90;;
30384;SDS011;17181;51.002;4.096;2022-11-20T00:49:32;23.00;;;9.63;;
30384;SDS011;17181;51.002;4.096;2022-11-20T00:51:58;23.47;;;9.97;;
30384;SDS011;17181;51.002;4.096;2022-11-20T00:54:23;22.30;;;9.30;;
30384;SDS011;17181;51.002;4.096;2022-11-20T00:56:49;28.50;;;12.93;;
30384;SDS011;17181;51.002;4.096;2022-11-20T00:59:17;22.63;;;11.67;;
30384;SDS011;17181;51.002;4.096;2022-11-20T01:01:43;17.73;;;10.30;;
30384;SDS011;17181;51.002;4.096;2022-11-20T01:04:09;15.77;;;9.37;;
30384;SDS011;17181;51.002;4.096;2022-11-20T01:06:35;22.07;;;11.10;;
30384;SDS011;17181;51.002;4.096;2022-11-20T01:09:06;30.37;;;11.90;;
30384;SDS011;17181;51.002;4.096;2022-11-20T01:11:36;23.57;;;11.47;;
30384;SDS011;17181;51.002;4.096;2022-11-20T01:14:05;20.57;;;10.73;;
30384;SDS011;17181;51.002;4.096;2022-11-20T01:16:34;23.23;;;10.57;;
30384;SDS011;17181;51.002;4.096;2022-11-20T01:19:03;30.03;;;14.07;;
30384;SDS011;17181;51.002;4.096;2022-11-20T01:21:31;25.40;;;12.97;;
30384;SDS011;17181;51.002;4.096;2022-11-20T01:23:59;29.03;;;11.47;;
30384;SDS011;17181;51.002;4.096;2022-11-20T01:26:26;39.57;;;13.07;;
30384;SDS011;17181;51.002;4.096;2022-11-20T01:28:55;36.80;;;13.60;;
30384;SDS011;17181;51.002;4.096;2022-11-20T01:31:23;22.03;;;12.17;;
30384;SDS011;17181;51.002;4.096;2022-11-20T01:33:54;33.87;;;12.63;;
30384;SDS011;17181;51.002;4.096;2022-11-20T01:36:22;24.37;;;12.43;;
30384;SDS011;17181;51.002;4.096;2022-11-20T01:38:53;31.23;;;12.00;;
30384;SDS011;17181;51.002;4.096;2022-11-20T01:41:20;26.67;;;14.37;;
30384;SDS011;17181;51.002;4.096;2022-11-20T01:44:06;23.47;;;11.07;;
30384;SDS011;17181;51.002;4.096;2022-11-20T01:46:33;19.20;;;11.10;;
30384;SDS011;17181;51.002;4.096;2022-11-20T01:49:13;29.93;;;11.27;;
30384;SDS011;17181;51.002;4.096;2022-11-20T01:54:12;20.50;;;11.07;;
30384;SDS011;17181;51.002;4.096;2022-11-20T01:56:42;21.33;;;11.00;;
30384;SDS011;17181;51.002;4.096;2022-11-20T01:59:12;18.23;;;9.67;;
30384;SDS011;17181;51.002;4.096;2022-11-20T02:01:40;25.50;;;11.20;;
30384;SDS011;17181;51.002;4.096;2022-11-20T02:04:06;20.87;;;11.47;;
30384;SDS011;17181;51.002;4.096;2022-11-20T02:06:44;17.30;;;9.00;;
30384;SDS011;17181;51.002;4.096;2022-11-20T02:09:20;26.30;;;12.20;;
30384;SDS011;17181;51.002;4.096;2022-11-20T02:11:46;19.23;;;11.23;;
30384;SDS011;17181;51.002;4.096;2022-11-20T02:14:12;23.07;;;9.37;;
30384;SDS011;17181;51.002;4.096;2022-11-20T02:16:43;19.57;;;10.83;;
30384;SDS011;17181;51.002;4.096;2022-11-20T02:19:30;15.13;;;8.67;;
30384;SDS011;17181;51.002;4.096;2022-11-20T02:24:44;22.40;;;10.47;;
30384;SDS011;17181;51.002;4.096;2022-11-20T02:27:12;26.03;;;12.17;;
30384;SDS011;17181;51.002;4.096;2022-11-20T02:29:52;16.70;;;9.43;;
30384;SDS011;17181;51.002;4.096;2022-11-20T02:32:26;24.37;;;11.03;;
30384;SDS011;17181;51.002;4.096;2022-11-20T02:34:53;32.10;;;13.10;;
30384;SDS011;17181;51.002;4.096;2022-11-20T02:37:20;20.53;;;10.47;;
30384;SDS011;17181;51.002;4.096;2022-11-20T02:39:47;31.63;;;11.67;;
30384;SDS011;17181;51.002;4.096;2022-11-20T02:42:17;25.87;;;11.13;;
30384;SDS011;17181;51.002;4.096;2022-11-20T02:44:43;21.43;;;11.00;;
30384;SDS011;17181;51.002;4.096;2022-11-20T02:47:09;33.23;;;13.63;;
30384;SDS011;17181;51.002;4.096;2022-11-20T02:49:35;25.73;;;12.70;;
30384;SDS011;17181;51.002;4.096;2022-11-20T02:52:01;27.97;;;9.77;;
30384;SDS011;17181;51.002;4.096;2022-11-20T02:54:26;33.57;;;12.70;;
30384;SDS011;17181;51.002;4.096;2022-11-20T02:56:52;23.37;;;11.87;;
30384;SDS011;17181;51.002;4.096;2022-11-20T02:59:18;25.33;;;11.17;;
30384;SDS011;17181;51.002;4.096;2022-11-20T03:01:44;28.97;;;12.63;;
30384;SDS011;17181;51.002;4.096;2022-11-20T03:04:10;28.60;;;12.93;;
30384;SDS011;17181;51.002;4.096;2022-11-20T03:06:36;23.20;;;12.63;;
30384;SDS011;17181;51.002;4.096;2022-11-20T03:09:02;21.23;;;13.03;;
30384;SDS011;17181;51.002;4.096;2022-11-20T03:11:28;20.83;;;9.97;;
30384;SDS011;17181;51.002;4.096;2022-11-20T03:13:54;26.10;;;12.83;;
30384;SDS011;17181;51.002;4.096;2022-11-20T03:16:20;27.13;;;10.40;;
30384;SDS011;17181;51.002;4.096;2022-11-20T03:18:47;25.27;;;12.23;;
30384;SDS011;17181;51.002;4.096;2022-11-20T03:21:14;24.67;;;12.67;;
30384;SDS011;17181;51.002;4.096;2022-11-20T03:23:40;29.60;;;14.30;;
30384;SDS011;17181;51.002;4.096;2022-11-20T03:26:14;29.00;;;12.80;;
30384;SDS011;17181;51.002;4.096;2022-11-20T03:28:48;29.00;;;14.10;;
30384;SDS011;17181;51.002;4.096;2022-11-20T03:31:15;30.67;;;12.43;;
30384;SDS011;17181;51.002;4.096;2022-11-20T03:33:43;40.40;;;12.13;;
30384;SDS011;17181;51.002;4.096;2022-11-20T03:36:10;26.37;;;11.83;;
30384;SDS011;17181;51.002;4.096;2022-11-20T03:38:37;21.73;;;11.40;;
30384;SDS011;17181;51.002;4.096;2022-11-20T03:41:04;25.37;;;12.93;;
30384;SDS011;17181;51.002;4.096;2022-11-20T03:43:33;23.60;;;12.47;;
30384;SDS011;17181;51.002;4.096;2022-11-20T03:45:59;31.50;;;12.73;;
30384;SDS011;17181;51.002;4.096;2022-11-20T03:48:25;35.40;;;13.33;;
30384;SDS011;17181;51.002;4.096;2022-11-20T03:50:51;31.87;;;13.40;;
30384;SDS011;17181;51.002;4.096;2022-11-20T03:53:18;25.00;;;12.03;;
30384;SDS011;17181;51.002;4.096;2022-11-20T03:55:44;35.03;;;12.17;;
30384;SDS011;17181;51.002;4.096;2022-11-20T03:58:09;23.67;;;12.50;;
30384;SDS011;17181;51.002;4.096;2022-11-20T04:00:35;32.90;;;12.97;;
30384;SDS011;17181;51.002;4.096;2022-11-20T04:03:02;26.53;;;13.90;;
30384;SDS011;17181;51.002;4.096;2022-11-20T04:05:28;24.60;;;11.37;;
30384;SDS011;17181;51.002;4.096;2022-11-20T04:07:53;28.80;;;11.23;;
30384;SDS011;17181;51.002;4.096;2022-11-20T04:10:19;24.90;;;13.70;;
30384;SDS011;17181;51.002;4.096;2022-11-20T04:12:45;31.73;;;12.20;;
30384;SDS011;17181;51.002;4.096;2022-11-20T04:15:11;43.90;;;14.13;;
30384;SDS011;17181;51.002;4.096;2022-11-20T04:17:37;24.50;;;10.63;;
30384;SDS011;17181;51.002;4.096;2022-11-20T04:20:03;27.93;;;11.93;;
30384;SDS011;17181;51.002;4.096;2022-11-20T04:22:29;32.73;;;13.33;;
30384;SDS011;17181;51.002;4.096;2022-11-20T04:24:55;32.77;;;14.60;;
30384;SDS011;17181;51.002;4.096;2022-11-20T04:27:20;33.13;;;12.63;;
30384;SDS011;17181;51.002;4.096;2022-11-20T04:29:46;35.30;;;13.17;;
30384;SDS011;17181;51.002;4.096;2022-11-20T04:32:12;31.40;;;13.30;;
30384;SDS011;17181;51.002;4.096;2022-11-20T04:34:38;29.20;;;13.30;;
30384;SDS011;17181;51.002;4.096;2022-11-20T04:37:03;27.60;;;12.30;;
30384;SDS011;17181;51.002;4.096;2022-11-20T04:39:29;28.07;;;11.77;;
30384;SDS011;17181;51.002;4.096;2022-11-20T04:41:55;31.50;;;12.33;;
30384;SDS011;17181;51.002;4.096;2022-11-20T04:44:39;28.20;;;12.53;;
30384;SDS011;17181;51.002;4.096;2022-11-20T04:47:05;26.60;;;10.97;;
30384;SDS011;17181;51.002;4.096;2022-11-20T04:49:30;28.33;;;11.63;;
30384;SDS011;17181;51.002;4.096;2022-11-20T04:51:57;32.23;;;13.13;;
30384;SDS011;17181;51.002;4.096;2022-11-20T04:54:23;23.80;;;11.83;;
30384;SDS011;17181;51.002;4.096;2022-11-20T04:56:49;24.57;;;11.50;;
30384;SDS011;17181;51.002;4.096;2022-11-20T04:59:15;22.43;;;10.23;;
30384;SDS011;17181;51.002;4.096;2022-11-20T05:01:40;36.10;;;12.27;;
30384;SDS011;17181;51.002;4.096;2022-11-20T05:04:06;30.60;;;12.97;;
30384;SDS011;17181;51.002;4.096;2022-11-20T05:06:32;30.07;;;13.83;;
30384;SDS011;17181;51.002;4.096;2022-11-20T05:08:58;24.03;;;13.60;;
30384;SDS011;17181;51.002;4.096;2022-11-20T05:11:24;34.57;;;12.40;;
30384;SDS011;17181;51.002;4.096;2022-11-20T05:13:50;20.67;;;10.47;;
30384;SDS011;17181;51.002;4.096;2022-11-20T05:16:18;30.13;;;12.60;;
30384;SDS011;17181;51.002;4.096;2022-11-20T05:18:45;23.80;;;10.73;;
30384;SDS011;17181;51.002;4.096;2022-11-20T05:21:12;27.23;;;11.13;;
30384;SDS011;17181;51.002;4.096;2022-11-20T05:23:38;32.20;;;11.90;;
30384;SDS011;17181;51.002;4.096;2022-11-20T05:26:04;25.23;;;13.60;;
30384;SDS011;17181;51.002;4.096;2022-11-20T05:28:32;27.63;;;13.13;;
30384;SDS011;17181;51.002;4.096;2022-11-20T05:31:12;27.77;;;12.13;;
30384;SDS011;17181;51.002;4.096;2022-11-20T05:33:42;22.67;;;11.87;;
30384;SDS011;17181;51.002;4.096;2022-11-20T05:36:09;39.73;;;12.53;;
30384;SDS011;17181;51.002;4.096;2022-11-20T05:38:37;23.53;;;11.00;;
30384;SDS011;17181;51.002;4.096;2022-11-20T05:41:13;25.93;;;10.53;;
30384;SDS011;17181;51.002;4.096;2022-11-20T05:43:41;32.13;;;13.50;;
30384;SDS011;17181;51.002;4.096;2022-11-20T05:46:08;29.33;;;12.20;;
30384;SDS011;17181;51.002;4.096;2022-11-20T05:48:36;33.87;;;12.00;;
30384;SDS011;17181;51.002;4.096;2022-11-20T05:51:03;47.80;;;15.27;;
30384;SDS011;17181;51.002;4.096;2022-11-20T05:53:31;20.27;;;9.87;;
30384;SDS011;17181;51.002;4.096;2022-11-20T05:56:02;29.43;;;11.57;;
30384;SDS011;17181;51.002;4.096;2022-11-20T05:58:36;38.57;;;13.23;;
30384;SDS011;17181;51.002;4.096;2022-11-20T06:01:03;27.47;;;11.23;;
30384;SDS011;17181;51.002;4.096;2022-11-20T06:03:31;33.53;;;11.03;;
30384;SDS011;17181;51.002;4.096;2022-11-20T06:05:58;35.53;;;12.77;;
30384;SDS011;17181;51.002;4.096;2022-11-20T06:08:24;34.93;;;12.70;;
30384;SDS011;17181;51.002;4.096;2022-11-20T06:10:50;27.83;;;12.00;;
30384;SDS011;17181;51.002;4.096;2022-11-20T06:13:16;24.90;;;11.20;;
30384;SDS011;17181;51.002;4.096;2022-11-20T06:15:41;40.23;;;14.00;;
30384;SDS011;17181;51.002;4.096;2022-11-20T06:18:07;26.27;;;10.87;;
30384;SDS011;17181;51.002;4.096;2022-11-20T06:20:33;22.10;;;12.70;;
30384;SDS011;17181;51.002;4.096;2022-11-20T06:22:59;39.07;;;12.50;;
30384;SDS011;17181;51.002;4.096;2022-11-20T06:25:24;36.67;;;14.60;;
30384;SDS011;17181;51.002;4.096;2022-11-20T06:27:50;36.87;;;13.70;;
30384;SDS011;17181;51.002;4.096;2022-11-20T06:30:16;36.63;;;13.53;;
30384;SDS011;17181;51.002;4.096;2022-11-20T06:32:42;32.70;;;12.23;;
30384;SDS011;17181;51.002;4.096;2022-11-20T06:35:08;27.90;;;12.60;;
30384;SDS011;17181;51.002;4.096;2022-11-20T06:37:34;40.63;;;12.97;;
30384;SDS011;17181;51.002;4.096;2022-11-20T06:40:00;29.93;;;11.83;;
30384;SDS011;17181;51.002;4.096;2022-11-20T06:42:26;40.70;;;12.83;;
30384;SDS011;17181;51.002;4.096;2022-11-20T06:44:52;29.93;;;10.63;;
30384;SDS011;17181;51.002;4.096;2022-11-20T06:47:17;40.07;;;12.53;;
30384;SDS011;17181;51.002;4.096;2022-11-20T06:49:43;31.83;;;12.73;;
30384;SDS011;17181;51.002;4.096;2022-11-20T06:52:09;30.67;;;11.07;;
30384;SDS011;17181;51.002;4.096;2022-11-20T06:54:35;36.80;;;14.73;;
30384;SDS011;17181;51.002;4.096;2022-11-20T06:57:00;37.30;;;14.40;;
30384;SDS011;17181;51.002;4.096;2022-11-20T06:59:26;36.73;;;15.40;;
30384;SDS011;17181;51.002;4.096;2022-11-20T07:01:52;32.40;;;14.00;;
30384;SDS011;17181;51.002;4.096;2022-11-20T07:04:18;39.27;;;13.43;;
30384;SDS011;17181;51.002;4.096;2022-11-20T07:06:43;36.60;;;14.63;;
30384;SDS011;17181;51.002;4.096;2022-11-20T07:09:09;32.87;;;14.60;;
30384;SDS011;17181;51.002;4.096;2022-11-20T07:11:35;45.93;;;14.37;;
30384;SDS011;17181;51.002;4.096;2022-11-20T07:14:00;39.47;;;14.10;;
30384;SDS011;17181;51.002;4.096;2022-11-20T07:16:27;33.70;;;13.37;;
30384;SDS011;17181;51.002;4.096;2022-11-20T07:18:53;42.27;;;13.83;;
30384;SDS011;17181;51.002;4.096;2022-11-20T07:21:18;38.17;;;14.57;;
30384;SDS011;17181;51.002;4.096;2022-11-20T07:23:44;33.10;;;13.27;;
30384;SDS011;17181;51.002;4.096;2022-11-20T07:26:10;36.17;;;13.20;;
30384;SDS011;17181;51.002;4.096;2022-11-20T07:28:36;32.90;;;15.60;;
30384;SDS011;17181;51.002;4.096;2022-11-20T07:31:02;35.33;;;12.37;;
30384;SDS011;17181;51.002;4.096;2022-11-20T07:33:29;44.93;;;16.43;;
30384;SDS011;17181;51.002;4.096;2022-11-20T07:35:55;39.97;;;12.37;;
30384;SDS011;17181;51.002;4.096;2022-11-20T07:38:23;37.47;;;11.23;;
30384;SDS011;17181;51.002;4.096;2022-11-20T07:40:52;39.63;;;14.53;;
30384;SDS011;17181;51.002;4.096;2022-11-20T07:43:19;29.40;;;12.30;;
30384;SDS011;17181;51.002;4.096;2022-11-20T07:45:46;41.00;;;14.03;;
30384;SDS011;17181;51.002;4.096;2022-11-20T07:48:12;45.20;;;13.73;;
30384;SDS011;17181;51.002;4.096;2022-11-20T07:50:37;33.60;;;12.77;;
30384;SDS011;17181;51.002;4.096;2022-11-20T07:53:03;34.33;;;12.53;;
30384;SDS011;17181;51.002;4.096;2022-11-20T07:55:30;35.90;;;14.33;;
30384;SDS011;17181;51.002;4.096;2022-11-20T07:57:56;38.60;;;13.80;;
30384;SDS011;17181;51.002;4.096;2022-11-20T08:00:22;36.70;;;13.50;;
30384;SDS011;17181;51.002;4.096;2022-11-20T08:02:48;38.97;;;14.93;;
30384;SDS011;17181;51.002;4.096;2022-11-20T08:05:14;38.07;;;14.00;;
30384;SDS011;17181;51.002;4.096;2022-11-20T08:07:41;29.87;;;12.57;;
30384;SDS011;17181;51.002;4.096;2022-11-20T08:10:09;26.30;;;12.17;;
30384;SDS011;17181;51.002;4.096;2022-11-20T08:12:36;33.60;;;13.80;;
30384;SDS011;17181;51.002;4.096;2022-11-20T08:15:27;37.70;;;12.77;;
30384;SDS011;17181;51.002;4.096;2022-11-20T08:17:58;41.47;;;13.63;;
30384;SDS011;17181;51.002;4.096;2022-11-20T08:20:25;33.03;;;11.83;;
30384;SDS011;17181;51.002;4.096;2022-11-20T08:22:51;28.20;;;13.10;;
30384;SDS011;17181;51.002;4.096;2022-11-20T08:25:17;40.53;;;13.50;;
30384;SDS011;17181;51.002;4.096;2022-11-20T08:27:42;23.83;;;11.17;;
30384;SDS011;17181;51.002;4.096;2022-11-20T08:30:08;36.63;;;11.57;;
30384;SDS011;17181;51.002;4.096;2022-11-20T08:32:35;31.33;;;11.93;;
30384;SDS011;17181;51.002;4.096;2022-11-20T08:35:02;36.00;;;12.67;;
30384;SDS011;17181;51.002;4.096;2022-11-20T08:37:28;33.63;;;12.87;;
30384;SDS011;17181;51.002;4.096;2022-11-20T08:39:54;33.97;;;10.53;;
30384;SDS011;17181;51.002;4.096;2022-11-20T08:42:22;23.43;;;10.57;;
30384;SDS011;17181;51.002;4.096;2022-11-20T08:44:47;34.90;;;11.17;;
30384;SDS011;17181;51.002;4.096;2022-11-20T08:47:13;32.67;;;13.10;;
30384;SDS011;17181;51.002;4.096;2022-11-20T08:49:39;34.77;;;11.23;;
30384;SDS011;17181;51.002;4.096;2022-11-20T08:52:05;39.40;;;13.80;;
30384;SDS011;17181;51.002;4.096;2022-11-20T08:54:31;29.80;;;12.30;;
30384;SDS011;17181;51.002;4.096;2022-11-20T08:56:57;45.03;;;12.00;;
30384;SDS011;17181;51.002;4.096;2022-11-20T08:59:23;38.13;;;12.13;;
30384;SDS011;17181;51.002;4.096;2022-11-20T09:01:48;20.73;;;9.07;;
30384;SDS011;17181;51.002;4.096;2022-11-20T09:04:15;47.03;;;13.30;;
30384;SDS011;17181;51.002;4.096;2022-11-20T09:06:41;39.77;;;13.23;;
30384;SDS011;17181;51.002;4.096;2022-11-20T09:09:06;30.00;;;10.93;;
30384;SDS011;17181;51.002;4.096;2022-11-20T09:11:32;36.20;;;11.33;;
30384;SDS011;17181;51.002;4.096;2022-11-20T09:14:00;24.27;;;7.77;;
30384;SDS011;17181;51.002;4.096;2022-11-20T09:16:27;30.63;;;12.13;;
30384;SDS011;17181;51.002;4.096;2022-11-20T09:18:53;34.90;;;10.73;;
30384;SDS011;17181;51.002;4.096;2022-11-20T09:21:19;19.17;;;10.17;;
30384;SDS011;17181;51.002;4.096;2022-11-20T09:23:45;31.13;;;11.67;;
30384;SDS011;17181;51.002;4.096;2022-11-20T09:26:12;30.70;;;10.70;;
30384;SDS011;17181;51.002;4.096;2022-11-20T09:28:39;27.40;;;9.33;;
30384;SDS011;17181;51.002;4.096;2022-11-20T09:31:09;34.20;;;11.03;;
30384;SDS011;17181;51.002;4.096;2022-11-20T09:33:41;18.57;;;9.33;;
30384;SDS011;17181;51.002;4.096;2022-11-20T09:36:08;35.33;;;10.43;;
30384;SDS011;17181;51.002;4.096;2022-11-20T09:38:33;18.33;;;7.23;;
30384;SDS011;17181;51.002;4.096;2022-11-20T09:41:04;19.83;;;9.10;;
30384;SDS011;17181;51.002;4.096;2022-11-20T09:46:29;26.13;;;11.30;;
30384;SDS011;17181;51.002;4.096;2022-11-20T09:54:41;22.73;;;9.07;;
30384;SDS011;17181;51.002;4.096;2022-11-20T09:57:18;21.30;;;8.47;;
30384;SDS011;17181;51.002;4.096;2022-11-20T09:59:50;20.13;;;8.90;;
30384;SDS011;17181;51.002;4.096;2022-11-20T10:04:51;23.20;;;10.93;;
30384;SDS011;17181;51.002;4.096;2022-11-20T10:15:31;22.30;;;7.97;;
30384;SDS011;17181;51.002;4.096;2022-11-20T10:18:08;17.00;;;8.00;;
30384;SDS011;17181;51.002;4.096;2022-11-20T10:21:01;19.07;;;8.43;;
30384;SDS011;17181;51.002;4.096;2022-11-20T10:29:55;8.50;;;4.30;;
30384;SDS011;17181;51.002;4.096;2022-11-20T10:32:28;13.87;;;6.17;;
30384;SDS011;17181;51.002;4.096;2022-11-20T10:38:01;12.10;;;4.97;;
30384;SDS011;17181;51.002;4.096;2022-11-20T10:40:43;13.93;;;4.30;;
30384;SDS011;17181;51.002;4.096;2022-11-20T10:43:19;11.73;;;5.77;;
30384;SDS011;17181;51.002;4.096;2022-11-20T10:48:27;3.97;;;2.53;;
30384;SDS011;17181;51.002;4.096;2022-11-20T10:51:04;9.37;;;5.20;;
30384;SDS011;17181;51.002;4.096;2022-11-20T10:56:05;10.07;;;4.03;;
30384;SDS011;17181;51.002;4.096;2022-11-20T11:01:52;4.30;;;1.83;;
30384;SDS011;17181;51.002;4.096;2022-11-20T11:04:51;11.00;;;2.47;;
30384;SDS011;17181;51.002;4.096;2022-11-20T11:07:24;8.40;;;4.13;;
30384;SDS011;17181;51.002;4.096;2022-11-20T11:09:55;2.10;;;1.47;;
30384;SDS011;17181;51.002;4.096;2022-11-20T11:12:22;3.43;;;2.87;;
30384;SDS011;17181;51.002;4.096;2022-11-20T11:14:54;0.40;;;0.40;;
30384;SDS011;17181;51.002;4.096;2022-11-20T11:17:28;1.03;;;1.00;;
30384;SDS011;17181;51.002;4.096;2022-11-20T11:19:57;9.07;;;3.60;;
30384;SDS011;17181;51.002;4.096;2022-11-20T11:22:31;3.17;;;1.73;;
30384;SDS011;17181;51.002;4.096;2022-11-20T11:24:59;0.77;;;0.77;;
30384;SDS011;17181;51.002;4.096;2022-11-20T11:27:25;0.90;;;0.90;;
30384;SDS011;17181;51.002;4.096;2022-11-20T11:30:00;7.00;;;1.67;;
30384;SDS011;17181;51.002;4.096;2022-11-20T11:33:04;4.20;;;1.87;;
30384;SDS011;17181;51.002;4.096;2022-11-20T11:35:31;2.03;;;0.80;;
30384;SDS011;17181;51.002;4.096;2022-11-20T11:38:02;1.70;;;1.43;;
30384;SDS011;17181;51.002;4.096;2022-11-20T11:40:33;3.53;;;1.80;;
30384;SDS011;17181;51.002;4.096;2022-11-20T11:43:06;0.90;;;0.90;;
30384;SDS011;17181;51.002;4.096;2022-11-20T11:46:02;12.93;;;2.57;;
30384;SDS011;17181;51.002;4.096;2022-11-20T11:48:40;0.80;;;0.80;;
30384;SDS011;17181;51.002;4.096;2022-11-20T11:51:07;2.10;;;1.37;;
30384;SDS011;17181;51.002;4.096;2022-11-20T11:53:34;1.77;;;1.07;;
30384;SDS011;17181;51.002;4.096;2022-11-20T11:56:08;4.90;;;1.03;;
30384;SDS011;17181;51.002;4.096;2022-11-20T11:58:51;1.70;;;1.40;;
30384;SDS011;17181;51.002;4.096;2022-11-20T12:02:11;0.93;;;0.87;;
30384;SDS011;17181;51.002;4.096;2022-11-20T12:07:15;6.63;;;1.73;;
30384;SDS011;17181;51.002;4.096;2022-11-20T12:09:49;2.77;;;1.43;;
30384;SDS011;17181;51.002;4.096;2022-11-20T12:12:18;6.97;;;1.20;;
30384;SDS011;17181;51.002;4.096;2022-11-20T12:14:47;0.60;;;0.60;;
30384;SDS011;17181;51.002;4.096;2022-11-20T12:17:15;1.33;;;1.23;;
30384;SDS011;17181;51.002;4.096;2022-11-20T12:19:43;0.93;;;0.67;;
30384;SDS011;17181;51.002;4.096;2022-11-20T12:22:31;1.77;;;0.60;;
30384;SDS011;17181;51.002;4.096;2022-11-20T12:25:11;1.17;;;1.07;;
30384;SDS011;17181;51.002;4.096;2022-11-20T12:30:26;1.37;;;1.27;;
30384;SDS011;17181;51.002;4.096;2022-11-20T12:33:08;5.90;;;1.57;;
30384;SDS011;17181;51.002;4.096;2022-11-20T12:38:58;3.20;;;1.53;;
30384;SDS011;17181;51.002;4.096;2022-11-20T12:51:03;0.60;;;0.47;;
30384;SDS011;17181;51.002;4.096;2022-11-20T12:56:47;6.17;;;1.17;;
30384;SDS011;17181;51.002;4.096;2022-11-20T12:59:32;3.13;;;1.53;;
30384;SDS011;17181;51.002;4.096;2022-11-20T13:02:13;1.90;;;1.13;;
30384;SDS011;17181;51.002;4.096;2022-11-20T13:07:27;1.63;;;1.30;;
30384;SDS011;17181;51.002;4.096;2022-11-20T13:09:54;4.33;;;1.60;;
30384;SDS011;17181;51.002;4.096;2022-11-20T13:15:08;1.60;;;1.50;;
30384;SDS011;17181;51.002;4.096;2022-11-20T13:20:16;0.77;;;0.73;;
30384;SDS011;17181;51.002;4.096;2022-11-20T13:22:47;1.10;;;1.00;;
30384;SDS011;17181;51.002;4.096;2022-11-20T13:27:59;1.13;;;0.90;;
30384;SDS011;17181;51.002;4.096;2022-11-20T13:30:28;1.70;;;1.03;;
30384;SDS011;17181;51.002;4.096;2022-11-20T13:33:06;5.73;;;1.57;;
30384;SDS011;17181;51.002;4.096;2022-11-20T13:35:34;0.60;;;0.50;;
30384;SDS011;17181;51.002;4.096;2022-11-20T13:38:12;2.60;;;0.33;;
30384;SDS011;17181;51.002;4.096;2022-11-20T13:40:52;1.40;;;0.90;;
30384;SDS011;17181;51.002;4.096;2022-11-20T13:46:00;0.70;;;0.67;;
30384;SDS011;17181;51.002;4.096;2022-11-20T13:48:45;0.50;;;0.50;;
30384;SDS011;17181;51.002;4.096;2022-11-20T13:54:04;0.40;;;0.40;;
30384;SDS011;17181;51.002;4.096;2022-11-20T14:01:59;0.57;;;0.27;;
30384;SDS011;17181;51.002;4.096;2022-11-20T14:04:30;0.70;;;0.70;;
30384;SDS011;17181;51.002;4.096;2022-11-20T14:07:01;2.57;;;0.93;;
30384;SDS011;17181;51.002;4.096;2022-11-20T14:09:31;0.17;;;0.17;;
30384;SDS011;17181;51.002;4.096;2022-11-20T14:11:58;0.10;;;0.10;;
30384;SDS011;17181;51.002;4.096;2022-11-20T14:14:25;1.30;;;1.17;;
30384;SDS011;17181;51.002;4.096;2022-11-20T14:16:52;1.07;;;0.60;;
30384;SDS011;17181;51.002;4.096;2022-11-20T14:19:30;0.67;;;0.67;;
30384;SDS011;17181;51.002;4.096;2022-11-20T14:25:03;0.10;;;0.10;;
30384;SDS011;17181;51.002;4.096;2022-11-20T14:27:42;0.60;;;0.60;;
30384;SDS011;17181;51.002;4.096;2022-11-20T14:30:15;0.90;;;0.63;;
30384;SDS011;17181;51.002;4.096;2022-11-20T14:32:43;0.80;;;0.80;;
30384;SDS011;17181;51.002;4.096;2022-11-20T14:35:17;0.90;;;0.90;;
30384;SDS011;17181;51.002;4.096;2022-11-20T14:37:49;13.60;;;1.07;;
30384;SDS011;17181;51.002;4.096;2022-11-20T14:42:53;0.77;;;0.40;;
30384;SDS011;17181;51.002;4.096;2022-11-20T14:45:19;2.20;;;2.10;;
30384;SDS011;17181;51.002;4.096;2022-11-20T14:47:46;0.97;;;0.93;;
30384;SDS011;17181;51.002;4.096;2022-11-20T14:50:21;2.47;;;1.87;;
30384;SDS011;17181;51.002;4.096;2022-11-20T14:52:53;0.73;;;0.73;;
30384;SDS011;17181;51.002;4.096;2022-11-20T14:55:28;3.97;;;1.47;;
30384;SDS011;17181;51.002;4.096;2022-11-20T14:57:57;0.57;;;0.47;;
30384;SDS011;17181;51.002;4.096;2022-11-20T15:00:25;0.83;;;0.83;;
30384;SDS011;17181;51.002;4.096;2022-11-20T15:02:52;7.37;;;2.07;;
30384;SDS011;17181;51.002;4.096;2022-11-20T15:05:19;0.30;;;0.30;;
30384;SDS011;17181;51.002;4.096;2022-11-20T15:07:48;2.33;;;1.77;;
30384;SDS011;17181;51.002;4.096;2022-11-20T15:10:20;1.37;;;1.37;;
30384;SDS011;17181;51.002;4.096;2022-11-20T15:12:52;0.40;;;0.40;;
30384;SDS011;17181;51.002;4.096;2022-11-20T15:15:25;1.87;;;1.60;;
30384;SDS011;17181;51.002;4.096;2022-11-20T15:18:01;2.43;;;2.10;;
30384;SDS011;17181;51.002;4.096;2022-11-20T15:20:28;3.60;;;2.23;;
30384;SDS011;17181;51.002;4.096;2022-11-20T15:22:57;1.37;;;1.13;;
30384;SDS011;17181;51.002;4.096;2022-11-20T15:25:23;2.50;;;0.97;;
30384;SDS011;17181;51.002;4.096;2022-11-20T15:27:51;1.00;;;0.83;;
30384;SDS011;17181;51.002;4.096;2022-11-20T15:30:20;0.97;;;0.63;;
30384;SDS011;17181;51.002;4.096;2022-11-20T15:32:47;1.47;;;1.37;;
30384;SDS011;17181;51.002;4.096;2022-11-20T15:35:13;4.33;;;0.77;;
30384;SDS011;17181;51.002;4.096;2022-11-20T15:37:40;1.73;;;1.33;;
30384;SDS011;17181;51.002;4.096;2022-11-20T15:40:06;6.20;;;1.00;;
30384;SDS011;17181;51.002;4.096;2022-11-20T15:42:33;9.73;;;1.00;;
30384;SDS011;17181;51.002;4.096;2022-11-20T15:44:59;3.50;;;1.87;;
30384;SDS011;17181;51.002;4.096;2022-11-20T15:47:27;1.53;;;0.77;;
30384;SDS011;17181;51.002;4.096;2022-11-20T15:49:55;1.47;;;1.30;;
30384;SDS011;17181;51.002;4.096;2022-11-20T15:52:21;8.57;;;2.17;;
30384;SDS011;17181;51.002;4.096;2022-11-20T15:54:47;9.73;;;0.70;;
30384;SDS011;17181;51.002;4.096;2022-11-20T15:57:13;5.97;;;2.03;;
30384;SDS011;17181;51.002;4.096;2022-11-20T15:59:39;1.40;;;1.03;;
30384;SDS011;17181;51.002;4.096;2022-11-20T16:02:13;5.47;;;1.57;;
30384;SDS011;17181;51.002;4.096;2022-11-20T16:04:40;3.10;;;1.20;;
30384;SDS011;17181;51.002;4.096;2022-11-20T16:07:06;1.93;;;0.83;;
30384;SDS011;17181;51.002;4.096;2022-11-20T16:09:31;10.07;;;0.73;;
30384;SDS011;17181;51.002;4.096;2022-11-20T16:11:57;1.73;;;1.60;;